createdAt,value
2022-11-05T00:00:36.756Z,8.21
2022-11-05T00:03:28.359Z,8.18
2022-11-05T00:06:13.726Z,8.15
2022-11-05T00:09:00.032Z,8.13
2022-11-05T00:11:45.563Z,8.12
2022-11-05T00:14:32.178Z,8.14
2022-11-05T00:16:59.154Z,8.14
2022-11-05T00:19:26.438Z,8.15
2022-11-05T00:22:11.979Z,8.18
2022-11-05T00:24:57.564Z,8.21
2022-11-05T00:27:24.540Z,8.25
2022-11-05T00:29:52.092Z,8.22
2022-11-05T00:32:19.033Z,8.24
2022-11-05T00:34:46.339Z,8.23
2022-11-05T00:37:13.253Z,8.27
2022-11-05T00:39:40.996Z,8.27
2022-11-05T00:42:26.602Z,8.31
2022-11-05T00:45:02.813Z,8.29
2022-11-05T00:47:49.748Z,8.28
2022-11-05T00:50:18.139Z,8.27
2022-11-05T00:52:57.437Z,8.26
2022-11-05T00:55:46.017Z,8.25
2022-11-05T00:58:19.746Z,8.26
2022-11-05T01:00:53.527Z,8.24
2022-11-05T01:03:23.033Z,8.24
2022-11-05T01:05:53.506Z,8.26
2022-11-05T01:08:22.210Z,8.28
2022-11-05T01:10:55.017Z,8.22
2022-11-05T01:13:29.991Z,8.21
2022-11-05T01:15:57.508Z,8.12
2022-11-05T01:18:25.422Z,8.08
2022-11-05T01:20:52.838Z,8.06
2022-11-05T01:23:20.322Z,8.08
2022-11-05T01:25:48.063Z,8.07
2022-11-05T01:28:15.145Z,8.11
2022-11-05T01:30:42.437Z,8.11
2022-11-05T01:33:09.699Z,8.17
2022-11-05T01:35:37.153Z,8.15
2022-11-05T01:38:04.104Z,8.12
2022-11-05T01:40:31.362Z,8.09
2022-11-05T01:43:00.557Z,8.13
2022-11-05T01:45:29.150Z,8.13
2022-11-05T01:48:11.447Z,8.16
2022-11-05T01:50:58.011Z,8.18
2022-11-05T01:53:24.801Z,8.19
2022-11-05T01:56:03.266Z,8.19
2022-11-05T01:58:48.790Z,8.10
2022-11-05T02:01:16.513Z,8.07
2022-11-05T02:03:45.239Z,8.02
2022-11-05T02:06:18.801Z,7.93
2022-11-05T02:08:52.078Z,7.88
2022-11-05T02:11:22.095Z,7.86
2022-11-05T02:13:49.732Z,7.84
2022-11-05T02:16:47.708Z,7.81
2022-11-05T02:19:20.673Z,7.77
2022-11-05T02:21:59.020Z,7.78
2022-11-05T02:24:31.661Z,7.76
2022-11-05T02:27:05.429Z,7.76
2022-11-05T02:29:32.998Z,7.70
2022-11-05T02:32:35.719Z,7.68
2022-11-05T02:35:29.642Z,7.63
2022-11-05T02:38:02.918Z,7.68
2022-11-05T02:40:54.793Z,7.71
2022-11-05T02:43:35.553Z,7.74
2022-11-05T02:46:27.741Z,7.73
2022-11-05T02:49:26.519Z,7.73
2022-11-05T02:51:58.708Z,7.69
2022-11-05T02:54:32.496Z,7.66
2022-11-05T02:57:01.188Z,7.64
2022-11-05T02:59:31.056Z,7.63
2022-11-05T03:01:59.577Z,7.62
2022-11-05T03:04:30.547Z,7.64
2022-11-05T03:07:25.089Z,7.66
2022-11-05T03:09:55.334Z,7.64
2022-11-05T03:12:42.605Z,7.68
2022-11-05T03:15:26.600Z,7.74
2022-11-05T03:18:03.118Z,7.78
2022-11-05T03:20:59.030Z,7.77
2022-11-05T03:23:34.256Z,7.75
2022-11-05T03:26:17.684Z,7.76
2022-11-05T03:28:50.587Z,7.78
2022-11-05T03:31:18.906Z,7.74
2022-11-05T03:33:48.291Z,7.79
2022-11-05T03:36:30.848Z,7.86
2022-11-05T03:39:07.222Z,7.86
2022-11-05T03:41:36.752Z,7.91
2022-11-05T03:44:07.431Z,7.93
2022-11-05T03:46:41.782Z,7.95
2022-11-05T03:49:15.047Z,7.98
2022-11-05T03:51:51.114Z,7.97
2022-11-05T03:54:20.975Z,7.97
2022-11-05T03:57:09.312Z,7.98
2022-11-05T03:59:45.985Z,8.03
2022-11-05T04:02:15.937Z,8.02
2022-11-05T04:04:43.053Z,8.01
2022-11-05T04:07:30.435Z,8.00
2022-11-05T04:10:15.957Z,7.99
2022-11-05T04:13:01.785Z,7.95
2022-11-05T04:15:52.111Z,8.00
2022-11-05T04:18:19.642Z,8.04
2022-11-05T04:21:05.191Z,8.07
2022-11-05T04:23:51.028Z,8.05
2022-11-05T04:26:23.393Z,8.01
2022-11-05T04:29:09.761Z,8.02
2022-11-05T04:31:37.582Z,8.00
2022-11-05T04:34:04.918Z,8.02
2022-11-05T04:36:32.172Z,8.01
2022-11-05T04:38:59.571Z,8.01
2022-11-05T04:41:26.814Z,8.04
2022-11-05T04:43:54.054Z,8.02
2022-11-05T04:46:21.023Z,8.05
2022-11-05T04:48:48.584Z,8.02
2022-11-05T04:51:15.573Z,8.02
2022-11-05T04:53:42.796Z,8.02
2022-11-05T04:56:21.689Z,8.00
2022-11-05T04:58:50.063Z,8.03
2022-11-05T05:01:19.757Z,8.01
2022-11-05T05:03:48.977Z,8.04
2022-11-05T05:06:16.792Z,8.04
2022-11-05T05:08:47.469Z,8.02
2022-11-05T05:11:16.835Z,8.05
2022-11-05T05:13:44.706Z,8.04
2022-11-05T05:16:26.937Z,8.00
2022-11-05T05:18:54.730Z,8.00
2022-11-05T05:21:41.518Z,7.95
2022-11-05T05:24:12.014Z,7.94
2022-11-05T05:26:44.214Z,7.88
2022-11-05T05:29:14.266Z,7.85
2022-11-05T05:31:41.326Z,7.88
2022-11-05T05:34:11.910Z,7.90
2022-11-05T05:36:41.302Z,7.93
2022-11-05T05:39:11.140Z,7.93
2022-11-05T05:41:38.326Z,7.96
2022-11-05T05:44:06.767Z,7.94
2022-11-05T05:46:34.313Z,7.97
2022-11-05T05:49:01.644Z,7.96
2022-11-05T05:51:28.651Z,7.93
2022-11-05T05:53:56.112Z,7.94
2022-11-05T05:56:23.153Z,7.93
2022-11-05T05:58:53.382Z,7.93
2022-11-05T06:01:20.594Z,7.90
2022-11-05T06:03:49.075Z,7.95
2022-11-05T06:06:19.973Z,7.94
2022-11-05T06:08:47.975Z,7.96
2022-11-05T06:11:15.175Z,8.00
2022-11-05T06:13:42.491Z,8.05
2022-11-05T06:16:10.338Z,8.04
2022-11-05T06:18:38.303Z,8.05
2022-11-05T06:21:08.027Z,8.07
2022-11-05T06:23:36.708Z,8.06
2022-11-05T06:26:06.734Z,8.06
2022-11-05T06:28:34.529Z,8.07
2022-11-05T06:31:02.087Z,8.11
2022-11-05T06:33:29.702Z,8.13
2022-11-05T06:36:01.485Z,8.15
2022-11-05T06:38:31.386Z,8.14
2022-11-05T06:40:59.653Z,8.15
2022-11-05T06:43:28.126Z,8.15
2022-11-05T06:45:56.464Z,8.17
2022-11-05T06:48:25.357Z,8.20
2022-11-05T06:50:52.368Z,8.23
2022-11-05T06:53:21.818Z,8.26
2022-11-05T06:55:48.820Z,8.28
2022-11-05T06:58:18.903Z,8.32
2022-11-05T07:00:46.281Z,8.32
2022-11-05T07:03:14.073Z,8.38
2022-11-05T07:05:45.178Z,8.39
2022-11-05T07:08:12.485Z,8.43
2022-11-05T07:10:39.819Z,8.48
2022-11-05T07:13:08.702Z,8.50
2022-11-05T07:15:37.167Z,8.50
2022-11-05T07:18:07.499Z,8.51
2022-11-05T07:20:35.081Z,8.54
2022-11-05T07:23:04.169Z,8.55
2022-11-05T07:25:32.908Z,8.60
2022-11-05T07:28:00.899Z,8.63
2022-11-05T07:30:29.151Z,8.64
2022-11-05T07:32:56.549Z,8.69
2022-11-05T07:35:23.528Z,8.75
2022-11-05T07:37:54.095Z,8.78
2022-11-05T07:40:23.115Z,8.82
2022-11-05T07:42:54.765Z,8.88
2022-11-05T07:45:22.079Z,8.96
2022-11-05T07:47:55.065Z,8.99
2022-11-05T07:50:25.470Z,9.03
2022-11-05T07:52:52.915Z,9.05
2022-11-05T07:55:20.948Z,9.01
2022-11-05T07:57:50.551Z,9.07
2022-11-05T08:00:22.368Z,9.15
2022-11-05T08:03:12.279Z,9.25
2022-11-05T08:05:42.109Z,9.29
2022-11-05T08:08:10.339Z,9.32
2022-11-05T08:10:38.588Z,9.40
2022-11-05T08:13:07.212Z,9.45
2022-11-05T08:15:35.076Z,9.45
2022-11-05T08:18:12.512Z,9.50
2022-11-05T08:20:41.162Z,9.61
2022-11-05T08:23:09.113Z,9.76
2022-11-05T08:25:36.524Z,9.88
2022-11-05T08:28:07.804Z,10.00
2022-11-05T08:30:35.509Z,10.17
2022-11-05T08:33:06.195Z,10.22
2022-11-05T08:35:34.624Z,10.38
2022-11-05T08:38:03.313Z,10.43
2022-11-05T08:40:35.758Z,10.54
2022-11-05T08:43:05.422Z,10.65
2022-11-05T08:45:33.536Z,10.74
2022-11-05T08:48:01.150Z,10.84
2022-11-05T08:50:28.671Z,10.94
2022-11-05T08:52:56.281Z,10.95
2022-11-05T08:55:23.538Z,11.01
2022-11-05T08:57:59.140Z,11.04
2022-11-05T09:00:27.907Z,11.03
2022-11-05T09:02:55.561Z,10.85
2022-11-05T09:05:22.548Z,10.79
2022-11-05T09:07:49.834Z,10.88
2022-11-05T09:10:16.972Z,10.99
2022-11-05T09:12:44.583Z,11.06
2022-11-05T09:15:15.069Z,11.12
2022-11-05T09:17:42.431Z,11.07
2022-11-05T09:20:11.329Z,10.98
2022-11-05T09:22:43.095Z,11.03
2022-11-05T09:25:10.896Z,11.14
2022-11-05T09:27:38.319Z,11.12
2022-11-05T09:30:05.733Z,11.08
2022-11-05T09:32:33.480Z,11.22
2022-11-05T09:35:02.925Z,11.32
2022-11-05T09:37:30.224Z,11.41
2022-11-05T09:39:57.203Z,11.54
2022-11-05T09:42:30.142Z,11.55
2022-11-05T09:45:03.140Z,11.62
2022-11-05T09:47:42.944Z,11.81
2022-11-05T09:50:16.288Z,11.84
2022-11-05T09:52:46.767Z,11.78
2022-11-05T09:55:41.819Z,11.73
2022-11-05T09:58:33.176Z,11.72
2022-11-05T10:01:00.733Z,11.75
2022-11-05T10:03:30.502Z,11.80
2022-11-05T10:06:07.898Z,11.89
2022-11-05T10:08:42.974Z,11.94
2022-11-05T10:11:22.670Z,12.06
2022-11-05T10:13:56.733Z,12.25
2022-11-05T10:16:34.731Z,12.36
2022-11-05T10:19:45.725Z,12.50
2022-11-05T10:22:17.755Z,12.52
2022-11-05T10:24:50.131Z,12.57
2022-11-05T10:27:20.211Z,12.70
2022-11-05T10:29:51.815Z,12.75
2022-11-05T10:32:29.698Z,12.73
2022-11-05T10:35:00.103Z,12.78
2022-11-05T10:37:28.836Z,12.90
2022-11-05T10:39:56.601Z,12.85
2022-11-05T10:42:49.949Z,12.99
2022-11-05T10:45:33.701Z,12.97
2022-11-05T10:48:16.127Z,12.61
2022-11-05T10:50:44.393Z,12.46
2022-11-05T10:53:20.838Z,12.36
2022-11-05T10:55:50.862Z,12.27
2022-11-05T10:58:18.280Z,12.17
2022-11-05T11:01:01.952Z,12.17
2022-11-05T11:03:41.358Z,12.24
2022-11-05T11:06:27.998Z,12.06
2022-11-05T11:09:01.860Z,11.90
2022-11-05T11:11:40.768Z,11.84
2022-11-05T11:14:13.663Z,11.86
2022-11-05T11:16:48.784Z,11.95
2022-11-05T11:19:21.894Z,11.97
2022-11-05T11:22:10.903Z,12.08
2022-11-05T11:24:47.986Z,12.25
2022-11-05T11:27:23.230Z,12.29
2022-11-05T11:29:56.579Z,12.36
2022-11-05T11:32:28.173Z,12.41
2022-11-05T11:34:57.285Z,12.34
2022-11-05T11:37:33.073Z,12.35
2022-11-05T11:40:24.645Z,12.32
2022-11-05T11:43:03.163Z,12.38
2022-11-05T11:45:50.983Z,12.42
2022-11-05T11:48:22.492Z,12.18
2022-11-05T11:50:52.766Z,11.94
2022-11-05T11:53:20.026Z,11.78
2022-11-05T11:56:00.621Z,11.68
2022-11-05T11:58:40.465Z,11.58
2022-11-05T12:01:21.484Z,11.58
2022-11-05T12:03:57.877Z,11.64
2022-11-05T12:06:49.791Z,11.68
2022-11-05T12:09:35.476Z,11.74
2022-11-05T12:12:02.407Z,11.76
2022-11-05T12:14:35.311Z,11.69
2022-11-05T12:17:14.597Z,11.65
2022-11-05T12:20:03.594Z,11.60
2022-11-05T12:23:10.998Z,11.52
2022-11-05T12:26:06.452Z,11.50
2022-11-05T12:29:12.189Z,11.51
2022-11-05T12:31:42.429Z,11.64
2022-11-05T12:34:33.933Z,11.72
2022-11-05T12:37:10.323Z,11.85
2022-11-05T12:39:49.303Z,11.93
2022-11-05T12:42:27.742Z,11.96
2022-11-05T12:44:57.928Z,11.96
2022-11-05T12:47:37.406Z,11.96
2022-11-05T12:50:37.160Z,12.01
2022-11-05T12:53:29.632Z,12.07
2022-11-05T12:56:00.794Z,11.99
2022-11-05T12:58:38.620Z,12.03
2022-11-05T13:01:11.316Z,12.00
2022-11-05T13:03:49.865Z,11.99
2022-11-05T13:06:21.851Z,11.91
2022-11-05T13:08:58.679Z,11.92
2022-11-05T13:11:48.614Z,11.90
2022-11-05T13:14:18.422Z,11.78
2022-11-05T13:16:54.888Z,11.72
2022-11-05T13:19:32.105Z,11.73
2022-11-05T13:22:27.632Z,11.68
2022-11-05T13:25:06.154Z,11.66
2022-11-05T13:27:49.299Z,11.68
2022-11-05T13:30:23.360Z,11.72
2022-11-05T13:32:59.456Z,11.66
2022-11-05T13:35:34.100Z,11.63
2022-11-05T13:38:25.551Z,11.66
2022-11-05T13:41:12.711Z,11.62
2022-11-05T13:44:17.866Z,11.61
2022-11-05T13:47:16.333Z,11.57
2022-11-05T13:50:12.718Z,11.53
2022-11-05T13:52:47.564Z,11.50
2022-11-05T13:55:39.166Z,11.47
2022-11-05T13:58:29.171Z,11.45
2022-11-05T14:01:26.716Z,11.42
2022-11-05T14:03:57.404Z,11.38
2022-11-05T14:06:31.833Z,11.38
2022-11-05T14:09:09.026Z,11.33
2022-11-05T14:11:43.145Z,11.33
2022-11-05T14:14:20.060Z,11.30
2022-11-05T14:16:54.876Z,11.30
2022-11-05T14:19:35.857Z,11.30
2022-11-05T14:22:35.624Z,11.27
2022-11-05T14:25:18.645Z,11.22
2022-11-05T14:27:48.901Z,11.24
2022-11-05T14:30:41.063Z,11.24
2022-11-05T14:33:16.676Z,11.25
2022-11-05T14:35:44.503Z,11.20
2022-11-05T14:38:24.905Z,11.23
2022-11-05T14:41:01.550Z,11.21
2022-11-05T14:43:37.196Z,11.21
2022-11-05T14:46:07.040Z,11.19
2022-11-05T14:48:42.100Z,11.15
2022-11-05T14:51:44.395Z,11.16
2022-11-05T14:54:15.373Z,11.15
2022-11-05T14:56:50.523Z,11.15
2022-11-05T14:59:32.137Z,11.10
2022-11-05T15:02:12.009Z,11.12
2022-11-05T15:04:43.197Z,11.08
2022-11-05T15:07:11.673Z,11.06
2022-11-05T15:10:04.283Z,11.06
2022-11-05T15:12:41.813Z,11.02
2022-11-05T15:15:21.523Z,11.01
2022-11-05T15:17:58.563Z,10.99
2022-11-05T15:20:37.268Z,10.97
2022-11-05T15:23:13.850Z,10.95
2022-11-05T15:26:07.721Z,10.97
2022-11-05T15:28:46.922Z,10.93
2022-11-05T15:31:15.775Z,10.92
2022-11-05T15:33:47.235Z,10.90
2022-11-05T15:36:32.967Z,10.89
2022-11-05T15:39:29.130Z,10.86
2022-11-05T15:41:53.931Z,10.91
2022-11-05T15:44:34.924Z,10.88
2022-11-05T15:47:13.317Z,10.86
2022-11-05T15:49:45.174Z,10.91
2022-11-05T15:52:14.685Z,10.85
2022-11-05T15:54:45.771Z,10.85
2022-11-05T15:57:25.601Z,10.83
2022-11-05T15:59:54.088Z,10.74
2022-11-05T16:02:33.939Z,10.69
2022-11-05T16:05:10.204Z,10.63
2022-11-05T16:07:42.790Z,10.55
2022-11-05T16:10:24.778Z,10.46
2022-11-05T16:12:52.515Z,10.41
2022-11-05T16:15:24.031Z,10.38
2022-11-05T16:18:00.094Z,10.37
2022-11-05T16:20:37.553Z,10.30
2022-11-05T16:23:22.025Z,10.27
2022-11-05T16:25:50.786Z,10.22
2022-11-05T16:28:29.534Z,10.13
2022-11-05T16:31:04.558Z,10.14
2022-11-05T16:33:45.936Z,10.14
2022-11-05T16:36:14.111Z,10.11
2022-11-05T16:38:42.056Z,10.10
2022-11-05T16:41:22.047Z,10.14
2022-11-05T16:44:00.258Z,10.16
2022-11-05T16:46:31.426Z,10.16
2022-11-05T16:49:00.328Z,10.12
2022-11-05T16:51:30.025Z,10.11
2022-11-05T16:53:58.836Z,10.07
2022-11-05T16:56:28.369Z,10.05
2022-11-05T16:58:56.613Z,10.01
2022-11-05T17:01:26.314Z,9.92
2022-11-05T17:03:55.476Z,9.86
2022-11-05T17:06:26.304Z,9.80
2022-11-05T17:08:57.663Z,9.75
2022-11-05T17:11:26.309Z,9.73
2022-11-05T17:13:54.485Z,9.71
2022-11-05T17:16:28.493Z,9.67
2022-11-05T17:18:58.314Z,9.59
2022-11-05T17:21:30.592Z,9.53
2022-11-05T17:24:01.673Z,9.52
2022-11-05T17:26:31.757Z,9.52
2022-11-05T17:29:01.927Z,9.47
2022-11-05T17:31:32.196Z,9.45
2022-11-05T17:34:01.145Z,9.43
2022-11-05T17:36:30.015Z,9.40
2022-11-05T17:38:58.152Z,9.39
2022-11-05T17:41:27.075Z,9.30
2022-11-05T17:43:58.633Z,9.30
2022-11-05T17:46:27.765Z,9.30
2022-11-05T17:48:56.198Z,9.28
2022-11-05T17:51:25.502Z,9.31
2022-11-05T17:53:53.795Z,9.33
2022-11-05T17:56:33.928Z,9.32
2022-11-05T17:59:04.183Z,9.30
2022-11-05T18:01:36.550Z,9.40
2022-11-05T18:04:09.002Z,9.45
2022-11-05T18:06:39.269Z,9.54
2022-11-05T18:09:09.534Z,9.58
2022-11-05T18:11:38.185Z,9.60
2022-11-05T18:14:07.428Z,9.64
2022-11-05T18:16:36.736Z,9.69
2022-11-05T18:19:06.484Z,9.70
2022-11-05T18:21:35.136Z,9.72
2022-11-05T18:24:08.611Z,9.74
2022-11-05T18:26:39.678Z,9.76
2022-11-05T18:29:09.218Z,9.75
2022-11-05T18:31:39.314Z,9.79
2022-11-05T18:34:10.879Z,9.80
2022-11-05T18:36:40.550Z,9.87
2022-11-05T18:39:09.215Z,9.90
2022-11-05T18:41:38.451Z,9.92
2022-11-05T18:44:08.556Z,9.94
2022-11-05T18:49:29.132Z,9.96
2022-11-05T18:51:59.720Z,9.92
2022-11-05T18:54:29.277Z,9.93
2022-11-05T18:57:00.205Z,9.94
2022-11-05T18:59:38.068Z,9.93
2022-11-05T19:02:11.347Z,9.99
2022-11-05T19:04:46.841Z,10.01
2022-11-05T19:07:30.186Z,10.02
2022-11-05T19:09:58.178Z,10.01
2022-11-05T19:12:27.063Z,10.03
2022-11-05T19:15:01.953Z,10.04
2022-11-05T19:17:33.452Z,10.03
2022-11-05T19:20:02.173Z,10.02
2022-11-05T19:22:30.727Z,10.01
2022-11-05T19:24:59.036Z,10.00
2022-11-05T19:27:28.450Z,9.93
2022-11-05T19:29:59.366Z,9.83
2022-11-05T19:32:28.119Z,9.72
2022-11-05T19:34:56.461Z,9.72
2022-11-05T19:37:27.364Z,9.65
2022-11-05T19:39:57.086Z,9.58
2022-11-05T19:42:26.606Z,9.46
2022-11-05T19:45:16.773Z,9.30
2022-11-05T19:47:47.126Z,9.16
2022-11-05T19:50:15.690Z,9.00
2022-11-05T19:52:44.485Z,8.84
2022-11-05T19:55:13.238Z,8.75
2022-11-05T19:57:45.907Z,8.62
2022-11-05T20:00:15.499Z,8.55
2022-11-05T20:02:46.751Z,8.48
2022-11-05T20:05:17.228Z,8.36
2022-11-05T20:07:51.415Z,8.48
2022-11-05T20:10:22.164Z,8.54
2022-11-05T20:12:50.740Z,8.54
2022-11-05T20:15:20.275Z,8.56
2022-11-05T20:17:54.655Z,8.59
2022-11-05T20:20:23.347Z,8.64
2022-11-05T20:22:53.828Z,8.65
2022-11-05T20:25:23.258Z,8.64
2022-11-05T20:27:51.917Z,8.59
2022-11-05T20:30:21.123Z,8.55
2022-11-05T20:32:54.759Z,8.51
2022-11-05T20:35:24.377Z,8.50
2022-11-05T20:37:54.159Z,8.45
2022-11-05T20:40:23.261Z,8.40
2022-11-05T20:42:52.055Z,8.29
2022-11-05T20:45:21.607Z,8.18
2022-11-05T20:47:50.350Z,8.18
2022-11-05T20:50:18.791Z,8.16
2022-11-05T20:52:47.259Z,8.15
2022-11-05T20:55:15.583Z,8.16
2022-11-05T20:57:44.193Z,8.20
2022-11-05T21:00:13.548Z,8.17
2022-11-05T21:02:44.525Z,8.14
2022-11-05T21:05:12.827Z,8.10
2022-11-05T21:07:45.412Z,8.06
2022-11-05T21:10:13.504Z,8.03
2022-11-05T21:12:43.015Z,8.01
2022-11-05T21:15:14.041Z,7.97
2022-11-05T21:17:43.605Z,7.96
2022-11-05T21:20:12.148Z,7.92
2022-11-05T21:22:43.612Z,7.93
2022-11-05T21:25:12.842Z,7.92
2022-11-05T21:27:43.754Z,7.89
2022-11-05T21:30:12.575Z,7.84
2022-11-05T21:32:40.728Z,7.81
2022-11-05T21:35:09.125Z,7.80
2022-11-05T21:37:37.416Z,7.74
2022-11-05T21:40:05.492Z,7.71
2022-11-05T21:42:33.850Z,7.64
2022-11-05T21:45:02.055Z,7.60
2022-11-05T21:47:30.562Z,7.56
2022-11-05T21:49:58.200Z,7.53
2022-11-05T21:52:44.701Z,7.51
2022-11-05T21:55:33.441Z,7.52
2022-11-05T21:58:25.188Z,7.52
2022-11-05T22:00:52.305Z,7.48
2022-11-05T22:03:20.490Z,7.47
2022-11-05T22:05:47.616Z,7.39
2022-11-05T22:08:15.378Z,7.39
2022-11-05T22:10:42.803Z,7.42
2022-11-05T22:13:10.931Z,7.40
2022-11-05T22:15:38.531Z,7.39
2022-11-05T22:18:06.396Z,7.34
2022-11-05T22:20:38.787Z,7.37
2022-11-05T22:23:10.858Z,7.33
2022-11-05T22:25:38.706Z,7.31
2022-11-05T22:28:08.319Z,7.26
2022-11-05T22:30:36.692Z,7.23
2022-11-05T22:33:04.159Z,7.21
2022-11-05T22:35:35.854Z,7.15
2022-11-05T22:38:03.851Z,7.14
2022-11-05T22:40:30.864Z,7.10
2022-11-05T22:43:00.471Z,7.06
2022-11-05T22:45:29.654Z,7.00
2022-11-05T22:47:56.955Z,6.96
2022-11-05T22:50:26.432Z,6.91
2022-11-05T22:52:56.003Z,6.88
2022-11-05T22:55:23.260Z,6.82
2022-11-05T22:57:50.539Z,6.74
2022-11-05T23:00:18.039Z,6.74
2022-11-05T23:02:45.647Z,6.74
2022-11-05T23:05:12.946Z,6.78
2022-11-05T23:07:58.669Z,6.79
2022-11-05T23:10:44.164Z,6.82
2022-11-05T23:13:11.468Z,6.80
2022-11-05T23:15:56.867Z,6.81
2022-11-05T23:18:43.446Z,6.78
2022-11-05T23:21:29.022Z,6.77
2022-11-05T23:24:05.349Z,6.74
2022-11-05T23:26:51.493Z,6.69
2022-11-05T23:29:21.378Z,6.63
2022-11-05T23:32:06.986Z,6.59
2022-11-05T23:34:34.477Z,6.55
2022-11-05T23:37:19.911Z,6.46
2022-11-05T23:39:47.261Z,6.38
2022-11-05T23:42:32.728Z,6.32
2022-11-05T23:45:18.605Z,6.30
2022-11-05T23:48:07.082Z,6.20
2022-11-05T23:50:39.596Z,6.20
2022-11-05T23:53:07.859Z,6.21
2022-11-05T23:55:35.267Z,6.20
2022-11-05T23:58:02.424Z,6.23
